createdAt,value
2019-01-27T00:01:46.118Z,2.30
2019-01-27T00:04:15.371Z,1.50
2019-01-27T00:06:44.647Z,1.47
2019-01-27T00:09:20.472Z,1.70
2019-01-27T00:11:52.070Z,1.60
2019-01-27T00:14:22.578Z,1.67
2019-01-27T00:16:53.167Z,2.67
2019-01-27T00:19:22.538Z,1.50
2019-01-27T00:21:54.819Z,2.70
2019-01-27T00:24:24.031Z,1.73
2019-01-27T00:26:53.419Z,1.50
2019-01-27T00:29:22.930Z,3.87
2019-01-27T00:31:54.230Z,1.50
2019-01-27T00:34:23.472Z,1.60
2019-01-27T00:36:52.661Z,2.10
2019-01-27T00:39:21.918Z,1.77
2019-01-27T00:41:50.940Z,1.77
2019-01-27T00:44:20.047Z,1.83
2019-01-27T00:46:49.149Z,2.53
2019-01-27T00:49:19.430Z,2.20
2019-01-27T00:51:51.049Z,1.80
2019-01-27T00:54:21.294Z,1.93
2019-01-27T00:56:51.656Z,2.17
2019-01-27T00:59:20.929Z,2.10
2019-01-27T01:01:52.948Z,2.00
2019-01-27T01:04:25.059Z,1.80
2019-01-27T01:07:02.445Z,1.97
2019-01-27T01:09:31.648Z,2.10
2019-01-27T01:12:00.799Z,1.50
2019-01-27T01:14:31.831Z,2.13
2019-01-27T01:17:03.149Z,1.83
2019-01-27T01:19:37.085Z,1.83
2019-01-27T01:22:06.202Z,1.77
2019-01-27T01:24:37.069Z,2.30
2019-01-27T01:27:10.918Z,1.67
2019-01-27T01:29:40.022Z,1.60
2019-01-27T01:32:10.251Z,1.47
2019-01-27T01:34:39.528Z,1.83
2019-01-27T01:37:13.228Z,1.33
2019-01-27T01:39:43.431Z,1.87
2019-01-27T01:42:12.522Z,1.77
2019-01-27T01:44:45.384Z,1.33
2019-01-27T01:47:14.590Z,1.47
2019-01-27T01:49:43.714Z,1.60
2019-01-27T01:52:13.978Z,1.20
2019-01-27T01:54:47.038Z,2.10
2019-01-27T01:57:18.674Z,1.80
2019-01-27T01:59:49.067Z,1.70
2019-01-27T02:02:21.143Z,1.70
2019-01-27T02:04:51.567Z,1.00
2019-01-27T02:07:25.057Z,1.60
2019-01-27T02:09:56.922Z,1.30
2019-01-27T02:12:27.521Z,1.57
2019-01-27T02:15:00.562Z,1.30
2019-01-27T02:17:29.860Z,1.60
2019-01-27T02:20:04.202Z,1.60
2019-01-27T02:22:34.694Z,1.30
2019-01-27T02:25:04.181Z,0.90
2019-01-27T02:27:33.424Z,0.93
2019-01-27T02:30:02.583Z,1.23
2019-01-27T02:32:33.456Z,1.80
2019-01-27T02:35:02.591Z,1.50
2019-01-27T02:37:33.497Z,1.07
2019-01-27T02:40:03.001Z,1.13
2019-01-27T02:42:32.952Z,0.93
2019-01-27T02:45:02.340Z,1.10
2019-01-27T02:47:33.279Z,1.07
2019-01-27T02:50:02.422Z,1.00
2019-01-27T02:52:33.730Z,1.07
2019-01-27T02:55:14.051Z,1.17
2019-01-27T02:57:44.411Z,0.87
2019-01-27T03:00:15.139Z,1.50
2019-01-27T03:02:44.237Z,1.00
2019-01-27T03:05:33.443Z,0.77
2019-01-27T03:08:03.504Z,0.77
2019-01-27T03:10:32.730Z,1.00
2019-01-27T03:13:03.984Z,1.10
2019-01-27T03:15:36.460Z,1.00
2019-01-27T03:18:05.804Z,1.13
2019-01-27T03:20:35.981Z,0.90
2019-01-27T03:23:05.757Z,1.13
2019-01-27T03:25:34.945Z,1.00
2019-01-27T03:28:04.162Z,0.80
2019-01-27T03:30:36.094Z,1.10
2019-01-27T03:33:05.425Z,1.03
2019-01-27T03:35:40.239Z,0.87
2019-01-27T03:38:11.163Z,1.00
2019-01-27T03:40:40.322Z,1.03
2019-01-27T03:43:10.598Z,0.80
2019-01-27T03:45:59.322Z,0.93
2019-01-27T03:48:30.809Z,0.93
2019-01-27T03:50:59.284Z,0.80
2019-01-27T03:53:32.160Z,0.90
2019-01-27T03:56:02.498Z,1.07
2019-01-27T03:58:31.615Z,1.10
2019-01-27T04:01:00.732Z,1.10
2019-01-27T04:03:29.878Z,0.90
2019-01-27T04:06:02.104Z,0.83
2019-01-27T04:08:31.210Z,1.20
2019-01-27T04:11:03.263Z,0.93
2019-01-27T04:13:32.860Z,1.00
2019-01-27T04:16:02.063Z,1.20
2019-01-27T04:18:31.191Z,1.10
2019-01-27T04:21:00.288Z,0.83
2019-01-27T04:23:31.166Z,0.90
2019-01-27T04:26:00.407Z,0.97
2019-01-27T04:28:30.780Z,0.70
2019-01-27T04:31:07.410Z,0.80
2019-01-27T04:33:37.773Z,0.63
2019-01-27T04:36:11.502Z,0.83
2019-01-27T04:38:40.555Z,0.90
2019-01-27T04:41:09.684Z,1.00
2019-01-27T04:43:38.868Z,1.10
2019-01-27T04:46:09.128Z,0.90
2019-01-27T04:48:42.777Z,0.90
2019-01-27T04:51:16.058Z,0.70
2019-01-27T04:53:45.182Z,0.70
2019-01-27T04:56:16.244Z,0.70
2019-01-27T04:58:46.447Z,1.03
2019-01-27T05:01:15.565Z,0.80
2019-01-27T05:03:54.921Z,0.90
2019-01-27T05:06:27.113Z,1.27
2019-01-27T05:09:00.034Z,1.00
2019-01-27T05:11:35.106Z,0.90
2019-01-27T05:14:07.208Z,0.70
2019-01-27T05:16:36.459Z,1.00
2019-01-27T05:19:05.569Z,1.40
2019-01-27T05:21:37.670Z,0.80
2019-01-27T05:24:06.931Z,0.80
2019-01-27T05:26:41.906Z,1.10
2019-01-27T05:29:12.681Z,1.03
2019-01-27T05:31:41.827Z,0.70
2019-01-27T05:34:10.931Z,1.07
2019-01-27T05:36:40.048Z,0.90
2019-01-27T05:39:09.807Z,1.13
2019-01-27T05:41:44.281Z,0.87
2019-01-27T05:44:21.240Z,0.83
2019-01-27T05:46:50.371Z,0.60
2019-01-27T05:49:19.500Z,0.90
2019-01-27T05:51:50.457Z,0.90
2019-01-27T05:54:20.247Z,0.80
2019-01-27T05:56:56.315Z,0.80
2019-01-27T05:59:26.278Z,0.93
2019-01-27T06:01:58.353Z,0.80
2019-01-27T06:04:32.655Z,0.73
2019-01-27T06:07:01.966Z,0.90
2019-01-27T06:09:31.050Z,1.00
2019-01-27T06:12:01.207Z,0.80
2019-01-27T06:14:34.842Z,1.00
2019-01-27T06:17:04.048Z,1.07
2019-01-27T06:19:33.265Z,0.70
2019-01-27T06:22:04.194Z,0.70
2019-01-27T06:24:33.365Z,0.80
2019-01-27T06:27:04.344Z,0.70
2019-01-27T06:29:33.563Z,1.00
2019-01-27T06:32:07.433Z,1.10
2019-01-27T06:34:39.497Z,0.93
2019-01-27T06:37:10.108Z,0.73
2019-01-27T06:39:40.904Z,0.73
2019-01-27T06:42:10.076Z,0.70
2019-01-27T06:44:39.284Z,0.80
2019-01-27T06:47:08.412Z,1.00
2019-01-27T06:49:37.585Z,0.90
2019-01-27T06:52:11.847Z,0.70
2019-01-27T06:54:41.240Z,0.83
2019-01-27T06:57:10.380Z,0.67
2019-01-27T06:59:53.087Z,0.80
2019-01-27T07:02:29.604Z,0.63
2019-01-27T07:05:28.156Z,0.70
2019-01-27T07:08:16.196Z,1.13
2019-01-27T07:11:14.662Z,0.83
2019-01-27T07:14:01.563Z,0.50
2019-01-27T07:16:47.487Z,0.73
2019-01-27T07:19:35.526Z,0.80
2019-01-27T07:22:24.923Z,0.70
2019-01-27T07:25:22.950Z,0.80
2019-01-27T07:28:15.211Z,0.60
2019-01-27T07:31:13.823Z,0.83
2019-01-27T07:33:56.722Z,1.33
2019-01-27T07:36:45.287Z,0.70
2019-01-27T07:39:35.312Z,1.00
2019-01-27T07:42:26.519Z,1.20
2019-01-27T07:45:20.583Z,1.10
2019-01-27T07:48:07.140Z,0.80
2019-01-27T07:50:45.571Z,1.43
2019-01-27T07:53:33.155Z,1.20
2019-01-27T07:56:24.359Z,1.70
2019-01-27T07:59:16.375Z,1.10
2019-01-27T08:01:52.622Z,1.33
2019-01-27T08:07:39.053Z,1.20
2019-01-27T08:10:18.650Z,1.90
2019-01-27T08:13:01.649Z,1.37
2019-01-27T08:16:00.970Z,1.37
2019-01-27T08:18:38.252Z,1.10
2019-01-27T08:21:29.202Z,0.50
2019-01-27T08:24:17.304Z,0.60
2019-01-27T08:27:12.359Z,0.90
2019-01-27T08:30:03.565Z,0.70
2019-01-27T08:32:43.740Z,0.90
2019-01-27T08:35:29.400Z,0.60
2019-01-27T08:38:12.861Z,1.03
2019-01-27T08:41:06.690Z,0.97
2019-01-27T08:43:57.827Z,1.17
2019-01-27T08:46:36.973Z,1.00
2019-01-27T08:49:07.925Z,0.80
2019-01-27T08:51:37.038Z,1.30
2019-01-27T08:54:10.152Z,1.00
2019-01-27T08:56:44.741Z,0.77
2019-01-27T08:59:13.943Z,0.70
2019-01-27T09:02:04.898Z,0.77
2019-01-27T09:04:39.700Z,1.03
2019-01-27T09:07:25.042Z,0.77
2019-01-27T09:10:21.934Z,1.30
2019-01-27T09:13:13.240Z,0.70
2019-01-27T09:15:54.065Z,1.00
2019-01-27T09:18:59.395Z,0.80
2019-01-27T09:21:52.037Z,1.00
2019-01-27T09:24:39.251Z,1.00
2019-01-27T09:27:20.067Z,1.20
2019-01-27T09:29:57.417Z,1.20
2019-01-27T09:32:41.490Z,0.90
2019-01-27T09:35:32.692Z,1.07
2019-01-27T09:38:23.926Z,1.17
2019-01-27T09:41:18.190Z,1.33
2019-01-27T09:44:04.978Z,0.77
2019-01-27T09:46:49.007Z,0.80
2019-01-27T09:49:35.490Z,1.27
2019-01-27T09:52:13.700Z,1.13
2019-01-27T09:54:55.658Z,2.13
2019-01-27T09:57:46.383Z,0.83
2019-01-27T10:00:42.665Z,1.23
2019-01-27T10:03:33.816Z,0.93
2019-01-27T10:06:27.811Z,0.90
2019-01-27T10:09:06.630Z,1.23
2019-01-27T10:11:53.630Z,0.87
2019-01-27T10:14:44.758Z,0.80
2019-01-27T10:17:35.940Z,0.70
2019-01-27T10:20:34.142Z,0.83
2019-01-27T10:23:10.569Z,0.90
2019-01-27T10:25:57.314Z,1.00
2019-01-27T10:28:53.698Z,1.10
2019-01-27T10:31:41.953Z,0.97
2019-01-27T10:34:45.641Z,0.73
2019-01-27T10:37:41.409Z,0.80
2019-01-27T10:40:44.692Z,0.70
2019-01-27T10:43:41.481Z,0.70
2019-01-27T10:46:27.047Z,0.93
2019-01-27T10:49:18.916Z,0.73
2019-01-27T10:51:56.664Z,1.30
2019-01-27T10:54:50.802Z,0.70
2019-01-27T10:57:42.489Z,0.77
2019-01-27T11:00:41.171Z,0.60
2019-01-27T11:03:20.323Z,1.00
2019-01-27T11:06:03.524Z,0.60
2019-01-27T11:08:43.127Z,0.80
2019-01-27T11:11:31.193Z,1.23
2019-01-27T11:14:24.947Z,1.10
2019-01-27T11:17:11.142Z,1.20
2019-01-27T11:20:14.412Z,0.50
2019-01-27T11:23:12.398Z,0.90
2019-01-27T11:25:51.968Z,0.90
2019-01-27T11:28:45.596Z,0.90
2019-01-27T11:31:32.205Z,1.10
2019-01-27T11:34:13.738Z,0.77
2019-01-27T11:37:07.886Z,0.70
2019-01-27T11:39:55.249Z,0.90
2019-01-27T11:42:34.893Z,0.77
2019-01-27T11:45:19.058Z,0.90
2019-01-27T11:48:07.135Z,0.70
2019-01-27T11:50:41.170Z,0.53
2019-01-27T11:53:10.435Z,0.70
2019-01-27T11:55:46.253Z,0.53
2019-01-27T11:58:15.716Z,0.70
2019-01-27T12:00:49.361Z,0.60
2019-01-27T12:03:23.272Z,0.80
2019-01-27T12:05:56.976Z,0.90
2019-01-27T12:08:28.913Z,0.70
2019-01-27T12:10:58.158Z,1.10
2019-01-27T12:13:29.028Z,0.60
2019-01-27T12:16:04.662Z,1.00
2019-01-27T12:18:33.858Z,0.80
2019-01-27T12:21:03.834Z,1.00
2019-01-27T12:23:35.811Z,0.90
2019-01-27T12:26:05.156Z,0.80
2019-01-27T12:28:34.572Z,1.53
2019-01-27T12:31:06.699Z,1.37
2019-01-27T12:33:38.350Z,0.70
2019-01-27T12:36:11.233Z,0.63
2019-01-27T12:38:41.748Z,1.50
2019-01-27T12:41:13.440Z,1.37
2019-01-27T12:43:45.797Z,1.10
2019-01-27T12:46:15.272Z,0.90
2019-01-27T12:48:44.624Z,1.00
2019-01-27T12:51:13.724Z,1.00
2019-01-27T12:53:42.852Z,1.00
2019-01-27T12:56:17.236Z,1.10
2019-01-27T12:58:46.366Z,1.07
2019-01-27T13:01:18.658Z,0.47
2019-01-27T13:03:50.733Z,0.80
2019-01-27T13:06:22.659Z,1.00
2019-01-27T13:08:53.866Z,0.90
2019-01-27T13:11:25.426Z,0.60
2019-01-27T13:13:54.314Z,0.80
2019-01-27T13:16:26.426Z,0.93
2019-01-27T13:18:55.557Z,1.60
2019-01-27T13:21:24.725Z,1.40
2019-01-27T13:23:54.125Z,0.97
2019-01-27T13:26:26.303Z,0.83
2019-01-27T13:28:59.721Z,0.97
2019-01-27T13:31:30.565Z,1.10
2019-01-27T13:34:05.820Z,1.40
2019-01-27T13:36:34.895Z,1.83
2019-01-27T13:39:11.540Z,2.57
2019-01-27T13:41:39.248Z,1.43
2019-01-27T13:44:09.541Z,1.30
2019-01-27T13:46:38.773Z,1.10
2019-01-27T13:49:13.162Z,1.93
2019-01-27T13:51:43.758Z,4.03
2019-01-27T13:54:30.161Z,1.00
2019-01-27T13:57:00.595Z,1.70
2019-01-27T13:59:34.311Z,0.90
2019-01-27T14:02:06.599Z,0.60
2019-01-27T14:04:36.186Z,1.00
2019-01-27T14:07:10.527Z,1.17
2019-01-27T14:09:39.712Z,0.90
2019-01-27T14:12:09.372Z,1.03
2019-01-27T14:14:45.119Z,1.10
2019-01-27T14:17:15.334Z,1.17
2019-01-27T14:19:46.814Z,1.00
2019-01-27T14:22:15.942Z,0.90
2019-01-27T14:24:46.408Z,1.20
2019-01-27T14:27:17.404Z,1.03
2019-01-27T14:29:50.207Z,1.40
2019-01-27T14:32:19.369Z,1.20
2019-01-27T14:34:50.677Z,0.87
2019-01-27T14:37:24.414Z,1.33
2019-01-27T14:39:59.309Z,1.37
2019-01-27T14:42:29.963Z,1.37
2019-01-27T14:44:59.532Z,1.00
2019-01-27T14:47:29.310Z,1.63
2019-01-27T14:49:58.614Z,1.20
2019-01-27T14:52:27.744Z,1.10
2019-01-27T14:54:56.854Z,0.90
2019-01-27T14:57:33.692Z,0.90
2019-01-27T15:00:02.903Z,1.40
2019-01-27T15:02:37.612Z,0.70
2019-01-27T15:05:13.931Z,0.97
2019-01-27T15:07:43.061Z,1.10
2019-01-27T15:10:14.725Z,0.73
2019-01-27T15:12:45.985Z,1.20
2019-01-27T15:15:22.850Z,1.50
2019-01-27T15:17:53.678Z,0.80
2019-01-27T15:20:28.594Z,0.90
2019-01-27T15:22:57.657Z,1.63
2019-01-27T15:25:29.504Z,1.00
2019-01-27T15:28:01.588Z,1.27
2019-01-27T15:30:32.232Z,1.03
2019-01-27T15:33:01.391Z,1.37
2019-01-27T15:35:36.640Z,0.70
2019-01-27T15:38:07.511Z,1.30
2019-01-27T15:40:39.719Z,1.00
2019-01-27T15:43:09.948Z,1.33
2019-01-27T15:45:39.060Z,1.70
2019-01-27T15:48:11.060Z,2.03
2019-01-27T15:50:40.161Z,5.17
2019-01-27T15:53:10.641Z,2.30
2019-01-27T15:55:40.145Z,1.70
2019-01-27T15:58:09.301Z,1.50
2019-01-27T16:00:38.604Z,1.37
2019-01-27T16:03:07.869Z,2.13
2019-01-27T16:05:39.948Z,1.37
2019-01-27T16:08:10.782Z,1.93
2019-01-27T16:10:44.105Z,0.97
2019-01-27T16:13:16.418Z,1.20
2019-01-27T16:15:51.489Z,2.57
2019-01-27T16:18:21.184Z,1.30
2019-01-27T16:20:50.554Z,1.93
2019-01-27T16:23:38.628Z,1.43
2019-01-27T16:26:11.162Z,1.60
2019-01-27T16:28:40.209Z,1.67
2019-01-27T16:31:36.052Z,1.10
2019-01-27T16:34:36.255Z,1.00
2019-01-27T16:37:05.430Z,1.97
2019-01-27T16:39:34.794Z,0.87
2019-01-27T16:42:07.139Z,1.37
2019-01-27T16:44:44.742Z,0.97
2019-01-27T16:47:18.937Z,1.30
2019-01-27T16:49:49.909Z,1.43
2019-01-27T16:52:29.446Z,1.03
2019-01-27T16:55:02.211Z,1.23
2019-01-27T16:57:33.909Z,1.10
2019-01-27T17:00:04.303Z,1.17
2019-01-27T17:02:36.019Z,1.00
2019-01-27T17:05:05.941Z,1.00
2019-01-27T17:07:35.054Z,0.90
2019-01-27T17:10:09.074Z,0.90
2019-01-27T17:12:39.825Z,0.80
2019-01-27T17:15:14.662Z,1.40
2019-01-27T17:17:48.147Z,1.90
2019-01-27T17:20:25.791Z,1.50
2019-01-27T17:22:49.347Z,0.90
2019-01-27T17:25:18.787Z,0.97
2019-01-27T17:27:48.577Z,1.23
2019-01-27T17:30:18.580Z,0.77
2019-01-27T17:32:48.009Z,1.10
2019-01-27T17:35:17.669Z,1.30
2019-01-27T17:37:47.087Z,0.90
2019-01-27T17:40:17.528Z,1.50
2019-01-27T17:42:50.435Z,1.57
2019-01-27T17:45:17.814Z,1.07
2019-01-27T17:47:49.934Z,1.13
2019-01-27T17:50:23.935Z,1.30
2019-01-27T17:52:53.186Z,1.33
2019-01-27T17:55:42.535Z,1.50
2019-01-27T17:58:54.166Z,1.37
2019-01-27T18:01:37.862Z,1.70
2019-01-27T18:04:28.008Z,1.80
2019-01-27T18:07:37.504Z,1.73
2019-01-27T18:10:36.312Z,1.67
2019-01-27T18:13:22.520Z,2.47
2019-01-27T18:15:51.771Z,1.90
2019-01-27T18:18:20.896Z,2.00
2019-01-27T18:20:51.795Z,2.03
2019-01-27T18:23:21.048Z,1.63
2019-01-27T18:25:50.167Z,2.40
2019-01-27T18:28:25.869Z,1.97
2019-01-27T18:30:56.297Z,1.53
2019-01-27T18:33:26.310Z,2.33
2019-01-27T18:35:55.775Z,1.57
2019-01-27T18:38:26.648Z,1.67
2019-01-27T18:40:57.920Z,1.90
2019-01-27T18:43:30.235Z,1.30
2019-01-27T18:45:59.525Z,2.00
2019-01-27T18:48:28.973Z,2.10
2019-01-27T18:51:03.202Z,2.17
2019-01-27T18:54:00.340Z,2.47
2019-01-27T18:56:43.946Z,2.40
2019-01-27T18:59:32.901Z,2.73
2019-01-27T19:02:24.412Z,2.73
2019-01-27T19:05:01.833Z,1.87
2019-01-27T19:07:55.915Z,2.73
2019-01-27T19:10:53.253Z,3.23
2019-01-27T19:13:40.464Z,2.63
2019-01-27T19:16:39.107Z,1.80
2019-01-27T19:19:37.776Z,2.00
2019-01-27T19:22:17.803Z,2.00
2019-01-27T19:27:59.691Z,2.00
2019-01-27T19:30:40.267Z,1.80
2019-01-27T19:33:40.599Z,2.80
2019-01-27T19:36:19.116Z,1.70
2019-01-27T19:39:13.653Z,3.00
2019-01-27T19:42:01.861Z,1.23
2019-01-27T19:44:48.814Z,1.60
2019-01-27T19:47:28.334Z,1.07
2019-01-27T19:50:12.383Z,0.90
2019-01-27T19:52:57.124Z,0.90
2019-01-27T19:55:44.402Z,1.10
2019-01-27T19:58:23.923Z,0.80
2019-01-27T20:01:10.907Z,0.50
2019-01-27T20:03:46.727Z,0.60
2019-01-27T20:06:35.171Z,0.90
2019-01-27T20:09:34.380Z,0.93
2019-01-27T20:12:21.000Z,1.07
2019-01-27T20:14:59.332Z,0.90
2019-01-27T20:18:03.921Z,0.73
2019-01-27T20:20:51.543Z,0.80
2019-01-27T20:23:48.749Z,0.60
2019-01-27T20:26:47.933Z,0.93
2019-01-27T20:29:25.943Z,1.03
2019-01-27T20:32:09.377Z,1.10
2019-01-27T20:34:56.247Z,1.27
2019-01-27T20:37:50.628Z,0.83
2019-01-27T20:40:35.857Z,1.77
2019-01-27T20:43:22.769Z,1.17
2019-01-27T20:46:20.345Z,1.03
2019-01-27T20:49:11.405Z,1.03
2019-01-27T20:51:50.378Z,1.20
2019-01-27T20:54:38.462Z,1.03
2019-01-27T20:57:29.826Z,1.47
2019-01-27T21:00:18.788Z,1.37
2019-01-27T21:03:08.615Z,1.10
2019-01-27T21:06:02.917Z,1.10
2019-01-27T21:08:47.268Z,1.57
2019-01-27T21:11:52.456Z,1.60
2019-01-27T21:14:46.018Z,1.37
2019-01-27T21:17:43.097Z,0.80
2019-01-27T21:20:17.952Z,0.90
2019-01-27T21:22:53.660Z,1.13
2019-01-27T21:25:24.332Z,1.57
2019-01-27T21:27:55.017Z,1.03
2019-01-27T21:30:25.806Z,1.50
2019-01-27T21:32:56.496Z,0.97
2019-01-27T21:35:25.615Z,1.20
2019-01-27T21:37:54.809Z,1.37
2019-01-27T21:40:23.852Z,1.50
2019-01-27T21:42:55.718Z,1.73
2019-01-27T21:45:26.445Z,3.13
2019-01-27T21:48:01.838Z,1.63
2019-01-27T21:50:33.816Z,2.60
2019-01-27T21:53:05.021Z,1.70
2019-01-27T21:55:34.340Z,1.40
2019-01-27T21:58:03.476Z,2.17
2019-01-27T22:00:32.687Z,1.70
2019-01-27T22:03:07.764Z,1.60
2019-01-27T22:05:39.388Z,1.20
2019-01-27T22:08:18.298Z,1.40
2019-01-27T22:10:50.373Z,1.23
2019-01-27T22:13:22.703Z,2.00
2019-01-27T22:15:55.379Z,1.23
2019-01-27T22:18:29.003Z,1.50
2019-01-27T22:20:58.169Z,1.87
2019-01-27T22:23:29.306Z,1.63
2019-01-27T22:26:01.349Z,1.57
2019-01-27T22:28:32.188Z,1.27
2019-01-27T22:31:06.843Z,0.90
2019-01-27T22:33:35.957Z,1.73
2019-01-27T22:36:06.541Z,1.80
2019-01-27T22:38:37.229Z,1.67
2019-01-27T22:41:08.676Z,1.80
2019-01-27T22:43:43.515Z,1.77
2019-01-27T22:46:12.696Z,2.40
2019-01-27T22:48:46.291Z,2.40
2019-01-27T22:51:15.392Z,2.23
2019-01-27T22:53:44.580Z,2.00
2019-01-27T22:56:18.585Z,2.37
2019-01-27T22:58:47.695Z,2.50
2019-01-27T23:01:20.266Z,2.57
2019-01-27T23:03:54.244Z,2.93
2019-01-27T23:06:25.859Z,2.60
2019-01-27T23:08:54.957Z,2.60
2019-01-27T23:11:25.412Z,1.83
2019-01-27T23:13:54.472Z,2.77
2019-01-27T23:16:26.858Z,2.67
2019-01-27T23:18:56.335Z,2.17
2019-01-27T23:21:25.435Z,3.23
2019-01-27T23:24:00.836Z,2.30
2019-01-27T23:26:29.815Z,2.20
2019-01-27T23:29:00.548Z,1.77
2019-01-27T23:31:29.595Z,2.53
2019-01-27T23:34:01.198Z,2.20
2019-01-27T23:36:30.316Z,2.43
2019-01-27T23:39:02.884Z,2.10
2019-01-27T23:41:33.597Z,2.10
2019-01-27T23:44:02.769Z,3.50
2019-01-27T23:46:31.874Z,2.07
2019-01-27T23:49:02.220Z,2.83
2019-01-27T23:51:32.446Z,1.60
2019-01-27T23:54:04.041Z,3.17
2019-01-27T23:56:37.923Z,2.10
2019-01-27T23:59:07.311Z,1.70
